createdAt,value
2023-05-06T00:01:20.528Z,78.40
2023-05-06T00:03:52.066Z,78.50
2023-05-06T00:06:29.642Z,78.50
2023-05-06T00:09:04.632Z,78.60
2023-05-06T00:11:35.785Z,78.60
2023-05-06T00:14:15.694Z,78.50
2023-05-06T00:16:54.871Z,78.50
2023-05-06T00:19:25.686Z,78.60
2023-05-06T00:22:06.013Z,78.50
2023-05-06T00:24:46.850Z,78.50
2023-05-06T00:27:17.615Z,78.60
2023-05-06T00:29:48.880Z,78.70
2023-05-06T00:32:22.837Z,78.80
2023-05-06T00:35:02.610Z,78.70
2023-05-06T00:37:52.837Z,78.80
2023-05-06T00:40:26.817Z,78.80
2023-05-06T00:43:06.907Z,78.80
2023-05-06T00:45:37.847Z,78.70
2023-05-06T00:48:17.804Z,78.70
2023-05-06T00:50:51.664Z,78.70
2023-05-06T00:53:30.494Z,78.80
2023-05-06T00:56:04.517Z,78.90
2023-05-06T00:58:44.809Z,79.00
2023-05-06T01:01:18.475Z,79.10
2023-05-06T01:03:54.591Z,79.20
2023-05-06T01:06:34.385Z,79.10
2023-05-06T01:09:22.158Z,79.00
2023-05-06T01:11:57.924Z,78.90
2023-05-06T01:14:42.880Z,78.80
2023-05-06T01:17:24.204Z,78.80
2023-05-06T01:19:59.916Z,78.90
2023-05-06T01:22:32.774Z,78.90
2023-05-06T01:25:25.908Z,78.90
2023-05-06T01:28:12.978Z,79.00
2023-05-06T01:31:01.383Z,79.00
2023-05-06T01:33:48.671Z,79.20
2023-05-06T01:36:29.175Z,79.30
2023-05-06T01:39:12.341Z,79.50
2023-05-06T01:41:54.635Z,79.40
2023-05-06T01:44:32.686Z,79.40
2023-05-06T01:47:13.342Z,79.40
2023-05-06T01:49:55.860Z,79.40
2023-05-06T01:52:31.543Z,79.30
2023-05-06T01:55:10.010Z,79.30
2023-05-06T01:57:46.543Z,79.40
2023-05-06T02:00:17.468Z,79.40
2023-05-06T02:02:47.787Z,79.30
2023-05-06T02:05:21.972Z,79.30
2023-05-06T02:08:09.531Z,79.20
2023-05-06T02:10:43.715Z,79.30
2023-05-06T02:13:21.757Z,79.50
2023-05-06T02:15:57.763Z,79.50
2023-05-06T02:18:30.927Z,79.50
2023-05-06T02:21:03.367Z,79.30
2023-05-06T02:23:43.763Z,79.30
2023-05-06T02:26:20.182Z,79.30
2023-05-06T02:29:07.685Z,79.40
2023-05-06T02:31:42.903Z,79.50
2023-05-06T02:34:16.860Z,79.40
2023-05-06T02:36:48.801Z,79.30
2023-05-06T02:39:24.375Z,79.40
2023-05-06T02:41:58.165Z,79.50
2023-05-06T02:44:35.457Z,79.60
2023-05-06T02:47:12.962Z,79.50
2023-05-06T02:49:51.099Z,79.40
2023-05-06T02:52:28.978Z,79.20
2023-05-06T02:55:06.185Z,79.10
2023-05-06T02:57:38.112Z,79.00
2023-05-06T03:00:14.073Z,79.00
2023-05-06T03:02:47.698Z,78.90
2023-05-06T03:05:17.915Z,78.90
2023-05-06T03:07:48.783Z,78.70
2023-05-06T03:10:22.572Z,78.70
2023-05-06T03:12:58.775Z,78.70
2023-05-06T03:15:37.019Z,78.70
2023-05-06T03:18:15.280Z,78.80
2023-05-06T03:20:48.881Z,79.00
2023-05-06T03:23:21.993Z,79.20
2023-05-06T03:25:57.432Z,79.10
2023-05-06T03:28:42.906Z,78.90
2023-05-06T03:31:28.796Z,78.80
2023-05-06T03:34:10.712Z,78.80
2023-05-06T03:36:46.622Z,78.80
2023-05-06T03:39:29.269Z,79.00
2023-05-06T03:42:07.128Z,78.80
2023-05-06T03:44:45.629Z,78.70
2023-05-06T03:47:21.350Z,78.70
2023-05-06T03:49:56.656Z,78.70
2023-05-06T03:52:28.363Z,78.80
2023-05-06T03:55:03.701Z,78.80
2023-05-06T03:57:35.892Z,78.80
2023-05-06T04:00:17.819Z,78.80
2023-05-06T04:02:59.790Z,78.80
2023-05-06T04:05:43.387Z,78.60
2023-05-06T04:08:23.913Z,78.40
2023-05-06T04:10:52.641Z,78.30
2023-05-06T04:13:35.895Z,78.10
2023-05-06T04:16:20.295Z,78.10
2023-05-06T04:19:06.712Z,78.10
2023-05-06T04:21:38.569Z,78.20
2023-05-06T04:24:16.145Z,78.20
2023-05-06T04:26:47.419Z,78.10
2023-05-06T04:29:17.234Z,78.10
2023-05-06T04:32:07.382Z,77.80
2023-05-06T04:34:55.390Z,77.90
2023-05-06T04:37:31.450Z,77.90
2023-05-06T04:40:32.611Z,77.80
2023-05-06T04:43:09.062Z,78.00
2023-05-06T04:45:38.336Z,78.10
2023-05-06T04:48:11.712Z,78.30
2023-05-06T04:50:48.964Z,78.50
2023-05-06T04:53:28.801Z,78.60
2023-05-06T04:56:04.627Z,78.70
2023-05-06T04:58:40.422Z,78.50
2023-05-06T05:01:14.311Z,78.40
2023-05-06T05:03:46.260Z,78.60
2023-05-06T05:06:27.758Z,79.00
2023-05-06T05:09:02.253Z,79.50
2023-05-06T05:11:43.553Z,79.70
2023-05-06T05:14:17.598Z,78.70
2023-05-06T05:16:48.712Z,77.50
2023-05-06T05:19:24.321Z,75.70
2023-05-06T05:22:02.831Z,74.70
2023-05-06T05:24:45.546Z,73.90
2023-05-06T05:27:23.558Z,73.10
2023-05-06T05:29:55.904Z,71.80
2023-05-06T05:32:28.877Z,70.90
2023-05-06T05:35:04.849Z,69.90
2023-05-06T05:37:42.821Z,69.10
2023-05-06T05:40:14.313Z,67.80
2023-05-06T05:42:58.348Z,67.20
2023-05-06T05:45:41.632Z,66.20
2023-05-06T05:48:22.969Z,65.30
2023-05-06T05:51:00.640Z,64.40
2023-05-06T05:53:32.851Z,63.20
2023-05-06T05:56:11.937Z,62.00
2023-05-06T05:58:53.743Z,61.30
2023-05-06T06:01:27.819Z,60.50
2023-05-06T06:04:02.312Z,58.90
2023-05-06T06:06:36.808Z,57.60
2023-05-06T06:09:18.734Z,58.20
2023-05-06T06:11:52.639Z,59.30
2023-05-06T06:14:34.984Z,60.70
2023-05-06T06:17:09.549Z,62.20
2023-05-06T06:19:42.820Z,63.40
2023-05-06T06:22:20.141Z,64.40
2023-05-06T06:24:57.470Z,65.40
2023-05-06T06:27:36.538Z,66.30
2023-05-06T06:30:12.119Z,67.00
2023-05-06T06:33:08.153Z,67.50
2023-05-06T06:35:40.455Z,68.30
2023-05-06T06:38:16.984Z,68.80
2023-05-06T06:40:56.180Z,69.30
2023-05-06T06:43:35.473Z,70.00
2023-05-06T06:46:12.731Z,70.40
2023-05-06T06:48:47.449Z,70.70
2023-05-06T06:51:23.469Z,71.10
2023-05-06T06:53:55.134Z,71.30
2023-05-06T06:56:31.098Z,71.60
2023-05-06T06:59:07.897Z,72.00
2023-05-06T07:01:42.200Z,72.10
2023-05-06T07:04:17.666Z,72.60
2023-05-06T07:06:47.006Z,72.90
2023-05-06T07:09:16.342Z,73.10
2023-05-06T07:11:55.536Z,73.30
2023-05-06T07:14:34.345Z,73.60
2023-05-06T07:17:07.856Z,73.60
2023-05-06T07:19:41.656Z,73.80
2023-05-06T07:22:13.739Z,73.90
2023-05-06T07:24:45.901Z,74.00
2023-05-06T07:27:22.981Z,74.20
2023-05-06T07:29:58.107Z,74.50
2023-05-06T07:32:35.019Z,74.60
2023-05-06T07:35:10.683Z,74.80
2023-05-06T07:37:53.188Z,74.80
2023-05-06T07:40:25.409Z,74.90
2023-05-06T07:43:00.163Z,75.00
2023-05-06T07:45:36.703Z,75.20
2023-05-06T07:48:08.401Z,75.30
2023-05-06T07:50:43.480Z,75.40
2023-05-06T07:53:14.197Z,75.40
2023-05-06T07:55:45.736Z,75.50
2023-05-06T07:58:24.845Z,75.60
2023-05-06T08:01:03.940Z,75.60
2023-05-06T08:03:40.061Z,75.50
2023-05-06T08:06:11.295Z,75.60
2023-05-06T08:08:41.646Z,75.70
2023-05-06T08:11:13.144Z,75.70
2023-05-06T08:13:48.999Z,75.60
2023-05-06T08:16:22.581Z,75.50
2023-05-06T08:18:55.202Z,75.40
2023-05-06T08:21:32.268Z,75.30
2023-05-06T08:24:02.920Z,75.50
2023-05-06T08:26:38.705Z,75.50
2023-05-06T08:29:16.508Z,75.40
2023-05-06T08:31:46.167Z,75.60
2023-05-06T08:34:18.712Z,75.60
2023-05-06T08:36:49.507Z,75.70
2023-05-06T08:39:28.687Z,75.70
2023-05-06T08:42:06.261Z,75.60
2023-05-06T08:44:43.844Z,75.50
2023-05-06T08:47:19.832Z,75.40
2023-05-06T08:49:59.439Z,75.40
2023-05-06T08:52:35.141Z,75.30
2023-05-06T08:55:25.445Z,75.30
2023-05-06T08:58:03.597Z,75.20
2023-05-06T09:00:45.152Z,74.90
2023-05-06T09:03:22.100Z,74.70
2023-05-06T09:05:56.836Z,74.50
2023-05-06T09:08:36.563Z,74.20
2023-05-06T09:14:16.078Z,73.80
2023-05-06T09:16:50.346Z,73.70
2023-05-06T09:19:29.515Z,73.60
2023-05-06T09:22:02.640Z,73.40
2023-05-06T09:24:32.938Z,73.10
2023-05-06T09:27:14.626Z,73.10
2023-05-06T09:30:01.569Z,73.00
2023-05-06T09:32:41.158Z,72.70
2023-05-06T09:35:15.402Z,72.60
2023-05-06T09:37:48.543Z,72.60
2023-05-06T09:40:19.562Z,72.50
2023-05-06T09:42:54.247Z,72.50
2023-05-06T09:45:39.428Z,72.20
2023-05-06T09:48:31.588Z,72.10
2023-05-06T09:51:01.492Z,71.80
2023-05-06T09:53:40.101Z,71.80
2023-05-06T09:56:20.087Z,71.80
2023-05-06T09:59:00.991Z,71.80
2023-05-06T10:01:39.199Z,71.80
2023-05-06T10:04:18.563Z,71.80
2023-05-06T10:06:55.021Z,72.00
2023-05-06T10:09:29.763Z,71.90
2023-05-06T10:12:06.027Z,71.80
2023-05-06T10:14:41.424Z,71.80
2023-05-06T10:17:14.815Z,71.80
2023-05-06T10:19:47.330Z,71.60
2023-05-06T10:22:38.856Z,71.50
2023-05-06T10:25:26.672Z,71.10
2023-05-06T10:28:00.738Z,71.10
2023-05-06T10:30:43.345Z,70.90
2023-05-06T10:33:17.038Z,70.70
2023-05-06T10:35:55.959Z,70.50
2023-05-06T10:38:39.141Z,70.20
2023-05-06T10:41:12.452Z,70.10
2023-05-06T10:43:52.355Z,70.10
2023-05-06T10:46:21.401Z,70.00
2023-05-06T10:49:23.413Z,69.80
2023-05-06T10:52:28.170Z,69.60
2023-05-06T10:55:08.945Z,69.50
2023-05-06T10:57:48.055Z,69.50
2023-05-06T11:00:22.764Z,69.30
2023-05-06T11:03:02.775Z,69.40
2023-05-06T11:05:33.745Z,69.40
2023-05-06T11:08:18.890Z,69.20
2023-05-06T11:10:52.491Z,69.00
2023-05-06T11:13:35.871Z,69.00
2023-05-06T11:16:07.709Z,69.00
2023-05-06T11:18:49.655Z,69.10
2023-05-06T11:21:42.720Z,69.00
2023-05-06T11:24:28.108Z,69.00
2023-05-06T11:27:03.845Z,69.30
2023-05-06T11:29:37.190Z,69.40
2023-05-06T11:32:18.778Z,69.20
2023-05-06T11:34:57.771Z,69.10
2023-05-06T11:37:34.799Z,68.90
2023-05-06T11:40:20.017Z,68.80
2023-05-06T11:42:54.202Z,68.70
2023-05-06T11:45:31.479Z,68.60
2023-05-06T11:48:06.603Z,68.60
2023-05-06T11:50:39.008Z,68.60
2023-05-06T11:53:10.446Z,68.60
2023-05-06T11:55:48.285Z,68.40
2023-05-06T11:58:25.252Z,68.10
2023-05-06T12:00:55.925Z,68.00
2023-05-06T12:03:30.785Z,67.90
2023-05-06T12:06:09.748Z,67.80
2023-05-06T12:08:41.414Z,67.80
2023-05-06T12:11:18.885Z,67.70
2023-05-06T12:13:49.057Z,67.50
2023-05-06T12:16:35.896Z,67.30
2023-05-06T12:19:22.114Z,67.00
2023-05-06T12:21:51.059Z,66.80
2023-05-06T12:24:35.934Z,66.60
2023-05-06T12:27:34.317Z,66.20
2023-05-06T12:30:04.975Z,66.00
2023-05-06T12:32:42.054Z,66.00
2023-05-06T12:35:30.629Z,65.80
2023-05-06T12:38:13.426Z,65.70
2023-05-06T12:40:44.705Z,65.90
2023-05-06T12:43:36.685Z,65.80
2023-05-06T12:46:07.434Z,65.70
2023-05-06T12:48:41.690Z,65.80
2023-05-06T12:51:25.079Z,65.50
2023-05-06T12:54:07.187Z,65.70
2023-05-06T12:56:36.873Z,65.70
2023-05-06T12:59:24.348Z,65.40
2023-05-06T13:01:57.465Z,65.60
2023-05-06T13:04:28.230Z,65.30
2023-05-06T13:07:01.860Z,65.20
2023-05-06T13:09:39.500Z,64.80
2023-05-06T13:12:15.176Z,64.30
2023-05-06T13:15:03.395Z,64.60
2023-05-06T13:17:37.234Z,64.20
2023-05-06T13:20:11.990Z,64.30
2023-05-06T13:22:54.738Z,64.50
2023-05-06T13:25:29.477Z,64.20
2023-05-06T13:28:04.123Z,64.10
2023-05-06T13:30:43.416Z,64.30
2023-05-06T13:33:23.702Z,64.20
2023-05-06T13:38:36.131Z,63.90
2023-05-06T13:41:12.333Z,63.70
2023-05-06T13:43:53.539Z,63.20
2023-05-06T13:46:46.456Z,62.80
2023-05-06T13:49:20.533Z,62.60
2023-05-06T13:51:50.443Z,62.60
2023-05-06T13:54:22.365Z,62.30
2023-05-06T13:56:55.077Z,62.20
2023-05-06T13:59:30.538Z,62.10
2023-05-06T14:02:13.562Z,62.00
2023-05-06T14:04:47.486Z,62.00
2023-05-06T14:07:27.310Z,62.10
2023-05-06T14:10:02.183Z,62.00
2023-05-06T14:12:37.143Z,61.90
2023-05-06T14:15:13.036Z,61.90
2023-05-06T14:17:51.903Z,62.40
2023-05-06T14:20:22.974Z,62.30
2023-05-06T14:22:56.761Z,62.30
2023-05-06T14:25:30.505Z,62.20
2023-05-06T14:28:10.984Z,62.10
2023-05-06T14:30:50.663Z,62.10
2023-05-06T14:33:38.066Z,62.10
2023-05-06T14:36:12.642Z,62.20
2023-05-06T14:38:50.575Z,62.00
2023-05-06T14:41:22.320Z,61.80
2023-05-06T14:43:59.481Z,61.60
2023-05-06T14:46:53.593Z,61.80
2023-05-06T14:49:34.154Z,62.10
2023-05-06T14:52:04.833Z,62.40
2023-05-06T14:54:46.242Z,62.30
2023-05-06T14:57:27.947Z,62.20
2023-05-06T14:59:58.551Z,61.80
2023-05-06T15:02:30.390Z,61.70
2023-05-06T15:05:07.101Z,61.50
2023-05-06T15:07:46.986Z,61.20
2023-05-06T15:10:21.554Z,61.30
2023-05-06T15:12:50.335Z,61.40
2023-05-06T15:15:23.153Z,61.40
2023-05-06T15:17:55.751Z,61.50
2023-05-06T15:20:27.740Z,61.40
2023-05-06T15:23:02.832Z,61.20
2023-05-06T15:25:44.022Z,61.30
2023-05-06T15:28:19.389Z,61.00
2023-05-06T15:30:50.193Z,60.60
2023-05-06T15:33:25.019Z,60.50
2023-05-06T15:36:00.166Z,60.50
2023-05-06T15:38:54.184Z,60.60
2023-05-06T15:41:29.641Z,60.50
2023-05-06T15:44:12.087Z,60.60
2023-05-06T15:46:43.334Z,60.70
2023-05-06T15:49:42.601Z,60.90
2023-05-06T15:52:07.890Z,60.90
2023-05-06T15:54:50.009Z,60.70
2023-05-06T15:57:35.837Z,60.80
2023-05-06T16:00:23.466Z,60.90
2023-05-06T16:02:57.483Z,60.90
2023-05-06T16:05:31.642Z,61.00
2023-05-06T16:08:08.642Z,61.10
2023-05-06T16:10:42.502Z,60.90
2023-05-06T16:13:13.233Z,60.70
2023-05-06T16:15:48.550Z,60.70
2023-05-06T16:18:19.251Z,60.60
2023-05-06T16:20:59.824Z,60.70
2023-05-06T16:23:34.400Z,60.60
2023-05-06T16:26:06.696Z,60.30
2023-05-06T16:28:38.108Z,60.40
2023-05-06T16:31:16.798Z,60.50
2023-05-06T16:33:51.635Z,60.40
2023-05-06T16:36:30.296Z,60.20
2023-05-06T16:39:20.097Z,60.30
2023-05-06T16:41:59.777Z,60.20
2023-05-06T16:44:38.382Z,60.50
2023-05-06T16:47:13.976Z,60.60
2023-05-06T16:49:45.174Z,60.60
2023-05-06T16:52:21.186Z,60.50
2023-05-06T16:55:01.954Z,60.60
2023-05-06T16:57:34.721Z,60.60
2023-05-06T17:02:57.328Z,60.80
2023-05-06T17:05:25.826Z,61.10
2023-05-06T17:07:59.523Z,61.30
2023-05-06T17:10:35.076Z,61.30
2023-05-06T17:13:05.157Z,61.40
2023-05-06T17:15:39.878Z,61.50
2023-05-06T17:18:16.850Z,61.60
2023-05-06T17:20:56.634Z,61.70
2023-05-06T17:23:29.194Z,61.70
2023-05-06T17:26:08.433Z,61.80
2023-05-06T17:28:43.586Z,61.90
2023-05-06T17:31:20.430Z,61.90
2023-05-06T17:33:48.768Z,62.00
2023-05-06T17:36:28.273Z,62.10
2023-05-06T17:39:12.585Z,62.30
2023-05-06T17:41:44.689Z,62.40
2023-05-06T17:44:19.615Z,62.70
2023-05-06T17:46:53.597Z,62.80
2023-05-06T17:49:33.863Z,62.90
2023-05-06T17:52:06.371Z,63.00
2023-05-06T17:54:37.709Z,63.20
2023-05-06T17:57:13.182Z,63.40
2023-05-06T18:03:06.509Z,63.70
2023-05-06T18:05:43.411Z,63.80
2023-05-06T18:08:14.652Z,64.00
2023-05-06T18:10:55.037Z,64.10
2023-05-06T18:13:32.249Z,64.30
2023-05-06T18:16:00.325Z,64.50
2023-05-06T18:18:32.336Z,64.60
2023-05-06T18:21:06.695Z,64.80
2023-05-06T18:23:40.837Z,65.00
2023-05-06T18:26:34.948Z,65.10
2023-05-06T18:29:13.020Z,65.30
2023-05-06T18:31:47.141Z,65.70
2023-05-06T18:34:25.654Z,65.90
2023-05-06T18:37:01.046Z,66.10
2023-05-06T18:39:41.639Z,66.10
2023-05-06T18:42:19.600Z,66.20
2023-05-06T18:45:14.254Z,66.30
2023-05-06T18:47:58.215Z,66.50
2023-05-06T18:50:32.007Z,66.60
2023-05-06T18:53:11.712Z,66.70
2023-05-06T18:55:46.629Z,66.80
2023-05-06T18:58:20.671Z,67.00
2023-05-06T19:00:58.494Z,67.00
2023-05-06T19:03:29.456Z,67.10
2023-05-06T19:06:01.117Z,67.10
2023-05-06T19:08:31.639Z,67.30
2023-05-06T19:11:08.328Z,67.40
2023-05-06T19:13:46.089Z,67.60
2023-05-06T19:16:23.785Z,67.70
2023-05-06T19:18:53.793Z,68.00
2023-05-06T19:21:27.566Z,68.10
2023-05-06T19:24:02.353Z,68.40
2023-05-06T19:26:42.817Z,68.50
2023-05-06T19:29:25.154Z,68.60
2023-05-06T19:32:04.977Z,68.70
2023-05-06T19:34:40.818Z,68.70
2023-05-06T19:37:16.282Z,68.80
2023-05-06T19:39:50.921Z,68.90
2023-05-06T19:42:25.988Z,69.00
2023-05-06T19:44:56.312Z,69.10
2023-05-06T19:47:32.900Z,69.20
2023-05-06T19:50:12.459Z,69.30
2023-05-06T19:52:45.019Z,69.40
2023-05-06T19:55:13.546Z,69.50
2023-05-06T19:57:45.625Z,69.70
2023-05-06T20:00:18.489Z,69.70
2023-05-06T20:02:59.528Z,69.80
2023-05-06T20:05:32.089Z,69.90
2023-05-06T20:08:06.751Z,69.90
2023-05-06T20:10:41.244Z,69.90
2023-05-06T20:13:20.602Z,70.00
2023-05-06T20:15:52.990Z,70.00
2023-05-06T20:18:40.009Z,70.20
2023-05-06T20:21:09.528Z,70.40
2023-05-06T20:23:42.343Z,70.50
2023-05-06T20:26:12.931Z,70.70
2023-05-06T20:28:44.047Z,70.80
2023-05-06T20:31:24.897Z,70.80
2023-05-06T20:34:00.742Z,70.80
2023-05-06T20:36:37.779Z,70.80
2023-05-06T20:39:07.148Z,70.80
2023-05-06T20:41:46.788Z,71.00
2023-05-06T20:44:17.833Z,71.10
2023-05-06T20:46:54.620Z,71.20
2023-05-06T20:49:33.681Z,71.30
2023-05-06T20:52:09.882Z,71.40
2023-05-06T20:54:44.702Z,71.40
2023-05-06T20:57:17.694Z,71.50
2023-05-06T20:59:51.968Z,71.50
2023-05-06T21:02:22.534Z,71.60
2023-05-06T21:04:53.170Z,71.70
2023-05-06T21:07:30.579Z,71.90
2023-05-06T21:10:11.288Z,71.90
2023-05-06T21:12:45.449Z,71.90
2023-05-06T21:15:30.662Z,71.80
2023-05-06T21:18:07.642Z,71.70
2023-05-06T21:20:58.888Z,71.70
2023-05-06T21:23:38.576Z,71.80
2023-05-06T21:26:18.610Z,71.80
2023-05-06T21:28:54.886Z,71.90
2023-05-06T21:31:29.483Z,71.90
2023-05-06T21:34:10.668Z,71.90
2023-05-06T21:36:56.946Z,72.00
2023-05-06T21:39:26.878Z,72.00
2023-05-06T21:42:00.616Z,72.10
2023-05-06T21:44:34.895Z,72.20
2023-05-06T21:47:14.293Z,72.30
2023-05-06T21:49:43.336Z,72.20
2023-05-06T21:52:19.474Z,72.20
2023-05-06T21:54:58.768Z,72.30
2023-05-06T21:57:39.124Z,72.30
2023-05-06T22:00:25.131Z,72.40
2023-05-06T22:03:03.181Z,72.40
2023-05-06T22:05:36.772Z,72.50
2023-05-06T22:08:12.248Z,72.50
2023-05-06T22:10:43.277Z,72.50
2023-05-06T22:13:26.930Z,72.40
2023-05-06T22:16:01.907Z,72.30
2023-05-06T22:18:45.538Z,72.30
2023-05-06T22:21:17.379Z,72.40
2023-05-06T22:23:49.491Z,72.40
2023-05-06T22:26:24.098Z,72.50
2023-05-06T22:28:58.328Z,72.60
2023-05-06T22:31:31.664Z,72.70
2023-05-06T22:34:07.884Z,72.70
2023-05-06T22:36:44.857Z,72.80
2023-05-06T22:39:25.960Z,72.90
2023-05-06T22:42:00.309Z,73.00
2023-05-06T22:44:36.778Z,73.00
2023-05-06T22:47:09.110Z,73.10
2023-05-06T22:49:40.433Z,73.20
2023-05-06T22:52:09.029Z,73.10
2023-05-06T22:54:44.243Z,73.10
2023-05-06T22:57:21.067Z,73.30
2023-05-06T23:00:01.284Z,73.30
2023-05-06T23:02:36.532Z,73.30
2023-05-06T23:05:07.033Z,73.40
2023-05-06T23:07:43.075Z,73.40
2023-05-06T23:10:29.842Z,73.50
2023-05-06T23:13:03.734Z,73.60
2023-05-06T23:15:37.035Z,73.60
2023-05-06T23:18:06.981Z,73.60
2023-05-06T23:20:39.226Z,73.70
2023-05-06T23:23:15.972Z,73.70
2023-05-06T23:25:51.594Z,73.80
2023-05-06T23:28:34.889Z,73.80
2023-05-06T23:31:11.778Z,73.90
2023-05-06T23:33:57.789Z,73.90
2023-05-06T23:36:31.649Z,73.90
2023-05-06T23:39:13.922Z,73.90
2023-05-06T23:41:48.181Z,74.00
2023-05-06T23:44:27.107Z,74.00
2023-05-06T23:47:04.415Z,73.90
2023-05-06T23:49:43.595Z,74.00
2023-05-06T23:52:14.183Z,74.20
2023-05-06T23:54:45.278Z,74.30
2023-05-06T23:57:32.093Z,74.20
